createdAt,value
2019-04-03T00:04:18.490Z,7.84
2019-04-03T00:09:23.167Z,7.73
2019-04-03T00:14:27.739Z,7.65
2019-04-03T00:19:33.201Z,7.54
2019-04-03T00:24:38.668Z,7.45
2019-04-03T00:29:43.294Z,7.33
2019-04-03T00:34:47.887Z,7.23
2019-04-03T00:39:54.087Z,7.09
2019-04-03T00:44:58.697Z,6.97
2019-04-03T00:50:03.507Z,6.82
2019-04-03T00:55:08.083Z,6.72
2019-04-03T01:00:16.518Z,6.60
2019-04-03T01:05:21.028Z,6.54
2019-04-03T01:10:25.458Z,6.45
2019-04-03T01:15:31.605Z,6.44
2019-04-03T01:20:36.645Z,6.42
2019-04-03T01:25:41.206Z,6.37
2019-04-03T01:30:46.033Z,6.33
2019-04-03T01:35:50.515Z,6.30
2019-04-03T01:40:55.093Z,6.29
2019-04-03T01:45:59.719Z,6.27
2019-04-03T01:51:04.334Z,6.23
2019-04-03T01:56:08.961Z,6.23
2019-04-03T02:01:13.479Z,6.16
2019-04-03T02:06:17.966Z,6.05
2019-04-03T02:11:22.916Z,6.00
2019-04-03T02:16:27.620Z,6.03
2019-04-03T02:21:32.129Z,6.07
2019-04-03T02:26:36.689Z,6.07
2019-04-03T02:31:41.160Z,6.10
2019-04-03T02:36:45.715Z,6.10
2019-04-03T02:41:51.112Z,6.15
2019-04-03T02:46:59.713Z,6.15
2019-04-03T02:52:01.922Z,6.10
2019-04-03T02:57:07.005Z,6.07
2019-04-03T03:02:12.848Z,6.06
2019-04-03T03:07:17.819Z,5.93
2019-04-03T03:12:25.190Z,5.90
2019-04-03T03:17:30.627Z,5.90
2019-04-03T03:22:36.865Z,5.91
2019-04-03T03:27:42.637Z,5.87
2019-04-03T03:32:48.350Z,5.84
2019-04-03T03:37:53.183Z,5.80
2019-04-03T03:42:59.284Z,5.78
2019-04-03T03:48:08.515Z,5.75
2019-04-03T03:53:12.694Z,5.81
2019-04-03T03:58:19.124Z,5.87
2019-04-03T04:03:24.897Z,5.89
2019-04-03T04:08:29.974Z,5.98
2019-04-03T04:13:35.892Z,6.09
2019-04-03T04:18:42.051Z,6.12
2019-04-03T04:23:46.635Z,6.16
2019-04-03T04:28:51.433Z,6.24
2019-04-03T04:33:56.925Z,6.28
2019-04-03T04:39:01.810Z,6.30
2019-04-03T04:44:08.000Z,6.35
2019-04-03T04:49:14.603Z,6.45
2019-04-03T04:54:19.047Z,6.53
2019-04-03T04:59:23.492Z,6.62
2019-04-03T05:04:27.969Z,6.78
2019-04-03T05:09:34.355Z,6.98
2019-04-03T05:14:39.603Z,7.16
2019-04-03T05:19:44.167Z,7.26
2019-04-03T05:24:48.602Z,7.35
2019-04-03T05:29:53.041Z,7.42
2019-04-03T05:34:57.503Z,7.48
2019-04-03T05:40:02.365Z,7.54
2019-04-03T05:45:07.652Z,7.71
2019-04-03T05:50:12.509Z,7.80
2019-04-03T05:55:16.976Z,7.89
2019-04-03T06:00:21.645Z,8.13
2019-04-03T06:05:26.146Z,8.38
2019-04-03T06:10:32.349Z,8.66
2019-04-03T06:15:36.998Z,8.96
2019-04-03T06:20:43.583Z,9.21
2019-04-03T06:25:48.000Z,9.42
2019-04-03T06:30:54.183Z,9.52
2019-04-03T06:35:58.642Z,9.63
2019-04-03T06:41:03.347Z,9.78
2019-04-03T06:46:07.958Z,9.97
2019-04-03T06:51:12.601Z,10.23
2019-04-03T06:56:18.587Z,10.45
2019-04-03T07:01:23.365Z,10.63
2019-04-03T07:06:27.928Z,10.82
2019-04-03T07:11:32.360Z,11.04
2019-04-03T07:16:38.578Z,11.23
2019-04-03T07:21:43.268Z,11.32
2019-04-03T07:26:48.181Z,11.38
2019-04-03T07:31:55.162Z,11.47
2019-04-03T07:37:01.060Z,11.62
2019-04-03T07:42:05.999Z,11.86
2019-04-03T07:47:11.501Z,12.04
2019-04-03T07:52:16.826Z,12.26
2019-04-03T07:57:22.302Z,12.46
2019-04-03T08:02:26.983Z,12.80
2019-04-03T08:07:31.619Z,12.92
2019-04-03T08:12:37.295Z,13.18
2019-04-03T08:17:41.890Z,13.26
2019-04-03T08:22:46.440Z,13.34
2019-04-03T08:27:50.982Z,13.54
2019-04-03T08:32:56.390Z,13.65
2019-04-03T08:38:00.950Z,13.71
2019-04-03T08:43:05.583Z,13.87
2019-04-03T08:48:10.216Z,14.11
2019-04-03T08:53:15.290Z,14.41
2019-04-03T08:58:21.565Z,14.82
2019-04-03T09:03:26.606Z,15.29
2019-04-03T09:08:31.165Z,15.57
2019-04-03T09:13:36.913Z,15.83
2019-04-03T09:18:42.529Z,16.00
2019-04-03T09:23:47.988Z,16.04
2019-04-03T09:28:52.425Z,16.21
2019-04-03T09:33:57.963Z,16.42
2019-04-03T09:39:02.951Z,16.51
2019-04-03T09:44:07.917Z,16.72
2019-04-03T09:49:12.463Z,16.95
2019-04-03T09:54:16.976Z,17.12
2019-04-03T09:59:21.516Z,17.32
2019-04-03T10:04:26.750Z,17.56
2019-04-03T10:09:31.512Z,17.75
2019-04-03T10:14:36.013Z,17.87
2019-04-03T10:19:40.511Z,17.94
2019-04-03T10:24:45.434Z,18.06
2019-04-03T10:29:50.720Z,18.25
2019-04-03T10:34:57.433Z,18.43
2019-04-03T10:40:02.103Z,18.88
2019-04-03T10:45:08.829Z,19.17
2019-04-03T10:50:14.080Z,19.53
2019-04-03T10:55:18.630Z,19.61
2019-04-03T11:00:24.636Z,19.69
2019-04-03T11:05:29.627Z,20.19
2019-04-03T11:10:34.273Z,20.68
2019-04-03T11:15:38.806Z,21.03
2019-04-03T11:20:43.602Z,21.21
2019-04-03T11:25:49.125Z,21.20
2019-04-03T11:30:56.302Z,21.19
2019-04-03T11:36:02.177Z,21.83
2019-04-03T11:41:14.424Z,22.68
2019-04-03T11:46:13.851Z,23.18
2019-04-03T11:51:21.048Z,23.44
2019-04-03T11:56:25.695Z,23.84
2019-04-03T12:01:30.268Z,23.76
2019-04-03T12:06:34.781Z,24.05
2019-04-03T12:11:39.931Z,23.13
2019-04-03T12:16:44.884Z,22.32
2019-04-03T12:21:50.830Z,21.96
2019-04-03T12:26:56.383Z,21.99
2019-04-03T12:32:03.440Z,22.71
2019-04-03T12:37:08.281Z,23.97
2019-04-03T12:42:12.853Z,24.58
2019-04-03T12:47:17.342Z,24.75
2019-04-03T12:52:22.054Z,24.67
2019-04-03T12:57:26.624Z,24.75
2019-04-03T13:02:31.517Z,25.55
2019-04-03T13:07:37.408Z,25.85
2019-04-03T13:12:42.452Z,26.04
2019-04-03T13:17:46.881Z,26.65
2019-04-03T13:22:51.835Z,25.47
2019-04-03T13:27:56.353Z,25.94
2019-04-03T13:33:05.431Z,26.21
2019-04-03T13:38:07.263Z,26.31
2019-04-03T13:43:11.994Z,26.50
2019-04-03T13:48:16.598Z,26.46
2019-04-03T13:53:24.683Z,25.90
2019-04-03T13:58:28.491Z,25.26
2019-04-03T14:03:33.193Z,24.93
2019-04-03T14:08:37.853Z,25.44
2019-04-03T14:13:43.655Z,26.13
2019-04-03T14:18:50.358Z,26.65
2019-04-03T14:23:54.771Z,27.71
2019-04-03T14:28:59.280Z,27.74
2019-04-03T14:34:04.092Z,27.48
2019-04-03T14:39:09.767Z,26.72
2019-04-03T14:44:14.245Z,26.38
2019-04-03T14:49:18.939Z,25.46
2019-04-03T14:54:24.544Z,25.19
2019-04-03T14:59:30.653Z,25.21
2019-04-03T15:04:37.128Z,24.60
2019-04-03T15:09:41.994Z,23.96
2019-04-03T15:14:46.507Z,24.24
2019-04-03T15:19:51.113Z,24.96
2019-04-03T15:24:55.974Z,25.70
2019-04-03T15:30:00.380Z,25.53
2019-04-03T15:35:06.058Z,25.29
2019-04-03T15:40:11.494Z,24.63
2019-04-03T15:45:16.199Z,23.96
2019-04-03T15:50:20.817Z,23.56
2019-04-03T16:00:42.592Z,24.32
2019-04-03T16:05:46.209Z,23.74
2019-04-03T16:10:50.758Z,23.99
2019-04-03T16:15:56.704Z,24.45
2019-04-03T16:21:01.717Z,24.59
2019-04-03T16:26:06.710Z,23.69
2019-04-03T16:31:11.548Z,22.59
2019-04-03T16:36:17.115Z,21.56
2019-04-03T16:41:22.180Z,20.79
2019-04-03T16:46:26.747Z,20.16
2019-04-03T16:56:38.190Z,19.45
2019-04-03T17:01:44.434Z,19.11
2019-04-03T17:06:49.092Z,18.87
2019-04-03T17:11:54.087Z,18.57
2019-04-03T17:16:58.558Z,18.31
2019-04-03T17:22:05.817Z,18.17
2019-04-03T17:27:09.455Z,17.97
2019-04-03T17:32:14.069Z,17.81
2019-04-03T17:37:20.577Z,17.64
2019-04-03T17:42:26.158Z,17.44
2019-04-03T17:47:30.779Z,17.26
2019-04-03T17:52:36.371Z,17.01
2019-04-03T17:57:44.550Z,16.76
2019-04-03T18:02:47.820Z,16.53
2019-04-03T18:07:52.895Z,16.36
2019-04-03T18:12:57.361Z,16.22
2019-04-03T18:18:02.938Z,16.11
2019-04-03T18:23:10.836Z,15.95
2019-04-03T18:28:15.476Z,15.79
2019-04-03T18:33:19.945Z,15.72
2019-04-03T18:38:25.434Z,15.60
2019-04-03T18:43:30.082Z,15.60
2019-04-03T18:48:34.545Z,15.53
2019-04-03T18:53:40.650Z,15.41
2019-04-03T18:58:45.213Z,15.29
2019-04-03T19:03:49.763Z,15.19
2019-04-03T19:08:54.365Z,15.06
2019-04-03T19:13:59.032Z,15.04
2019-04-03T19:19:08.079Z,14.99
2019-04-03T19:24:09.752Z,15.04
2019-04-03T19:29:14.304Z,15.07
2019-04-03T19:34:20.175Z,15.07
2019-04-03T19:39:25.052Z,15.04
2019-04-03T19:44:29.611Z,14.98
2019-04-03T19:49:34.169Z,14.88
2019-04-03T19:54:38.814Z,14.75
2019-04-03T19:59:43.307Z,14.74
2019-04-03T20:04:48.770Z,14.70
2019-04-03T20:09:55.926Z,14.75
2019-04-03T20:15:02.265Z,14.67
2019-04-03T20:20:07.804Z,14.57
2019-04-03T20:25:14.414Z,14.46
2019-04-03T20:30:18.762Z,14.37
2019-04-03T20:35:23.277Z,14.29
2019-04-03T20:40:27.750Z,14.21
2019-04-03T20:45:32.301Z,14.11
2019-04-03T20:50:38.142Z,13.98
2019-04-03T20:55:42.896Z,13.86
2019-04-03T21:00:51.474Z,13.77
2019-04-03T21:05:53.671Z,13.63
2019-04-03T21:10:58.259Z,13.52
2019-04-03T21:16:02.800Z,13.41
2019-04-03T21:21:07.395Z,13.27
2019-04-03T21:26:12.201Z,13.24
2019-04-03T21:31:16.689Z,13.15
2019-04-03T21:36:21.236Z,13.06
2019-04-03T21:41:25.703Z,12.98
2019-04-03T21:46:30.179Z,12.87
2019-04-03T21:51:34.761Z,12.89
2019-04-03T21:56:39.257Z,12.93
2019-04-03T22:01:45.424Z,12.98
2019-04-03T22:06:50.199Z,12.98
2019-04-03T22:11:54.639Z,12.83
2019-04-03T22:16:59.149Z,12.68
2019-04-03T22:22:03.735Z,12.78
2019-04-03T22:27:08.160Z,12.84
2019-04-03T22:32:12.589Z,12.51
2019-04-03T22:37:17.392Z,11.87
2019-04-03T22:42:21.908Z,11.41
2019-04-03T22:47:26.412Z,11.23
2019-04-03T22:52:30.841Z,11.10
2019-04-03T22:57:35.331Z,11.09
2019-04-03T23:02:39.967Z,11.03
2019-04-03T23:07:44.407Z,10.95
2019-04-03T23:12:48.911Z,10.67
2019-04-03T23:17:53.353Z,10.39
2019-04-03T23:22:57.862Z,10.31
2019-04-03T23:28:02.985Z,10.32
2019-04-03T23:33:08.155Z,10.38
2019-04-03T23:38:12.770Z,10.43
2019-04-03T23:43:17.344Z,10.45
2019-04-03T23:48:21.926Z,10.51
2019-04-03T23:53:26.417Z,10.48
2019-04-03T23:58:30.969Z,10.43
